Immagine casuale
Testata Regione Lazio ARSIAL SIARL

Ultima Misura Rilevata

Temperatura, Umidità, Pioggia, Pressione Radiazione Solare, Venti, Evapotraspirazione, ecc.
Temperature diurne e notturne Direzione vento Legenda
Prov Stazione Data TMin TMed TMax UMed Pioggia PMed
FR ALATRI Basciano 11/07/2024 22,7 29,8 38,7 44 0 1.012
FR ALVITO Az. Ist. S. Benedetto 11/07/2024 17,2 26,9 36,4 63 0 1.014
FR ANAGNI La Gloria 11/07/2024 18 28,1 38,2 50 0 1.013
FR ARPINO Vigne Piane 11/07/2024 23,2 28,6 37,3 52 0 1.014
FR BOVILLE ERNICA Sasso 11/07/2024 21 30 40,3 53 0 1.014
FR CECCANO C.da Passo del Cardinale 11/07/2024 15,3 26,7 37,8 69 0 ----
FR ESPERIA Modale 11/07/2024 18,6 28,1 38,6 62 0 1.011
FR PASTENA Acero 11/07/2024 16,7 27,5 37,7 64 0 1.016
FR PIGLIO Civitella 11/07/2024 19,3 27,8 39,3 51 0 1.012
FR PONTECORVO Melfi di Sotto 11/07/2024 18,2 28 38,4 65 0 ----
FR S. ELIA FIUMERAPIDO Portella 11/07/2024 21 28,6 38,3 54 0 1.013
FR S. GIORGIO A LIRI Porto 11/07/2024 18,2 27,9 39,2 69 0 1.014
FR SGURGOLA Campo Lungo 11/07/2024 16,6 28,1 38,8 56 0 ----
FR VALLECORSA Serbatoio comunale 11/07/2024 22,8 27,6 33,7 54 0 1.013
LT APRILIA Le Ferriere 11/07/2024 19,9 27,6 36 66 0 1.014
LT CISTERNA B.go Carso 11/07/2024 17,2 26,8 34,2 66 0 ----
LT CISTERNA Doganella di Ninfa 11/07/2024 19,3 28,2 37,1 58 0 1.013
LT CORI Portone 11/07/2024 21,4 29,9 39,7 47 0 1.014
LT FONDI Capratica 11/07/2024 19,6 26,1 31,8 81 0 1.014
LT FORMIA Loc. Gianola 11/07/2024 19,7 25,7 30,8 86 0 ----
LT ITRI Valle Quercia 11/07/2024 23,4 28,3 34,4 62 0 1.013
LT MAENZA Casacotta 11/07/2024 19,7 28,3 36,9 55 0 1.013
LT MINTURNO Pulcherini 11/07/2024 23,7 27,8 32,4 73 0 1.014
LT PONTINIA Cotarda 11/07/2024 16,7 25,9 35,3 78 0 1.014
LT SABAUDIA Acquaviva 11/07/2024 18,9 26,2 33,6 72 0 1.014
LT SONNINO Frasso 11/07/2024 22,8 29,1 36,9 59 0 1.015
RI ACCUMOLI Terracino 11/07/2024 19 24,7 30 47 0 1.014
RI BORGOVELINO Ponte Basso 11/07/2024 17,1 25,4 37,2 63 0 1.018
RI CANTALUPO S. Francesco 11/07/2024 18,3 27,4 37 48 0 ----
RI CASTEL DI TORA Monte di Tora 11/07/2024 15,8 25,4 35,9 55 0 1.013
RI CASTELNUOVO FARFA C. Spadone 11/07/2024 22,1 30,5 39,5 41 0 ----
RI CONFIGNI Portella 11/07/2024 22 29,1 37,8 47 0 1.014
RI FARA SABINA Canneto 11/07/2024 23,6 30,5 38,7 38 0 1.013
RI FARA SABINA Sant'Andrea 11/07/2024 22,6 30,5 38,8 42 0 ----
RI MONTELEONE S. Prato Camino 11/07/2024 19,1 28,2 38,6 47 0 1.014
RI MONTOPOLI IN SABINA Colle Arcone 11/07/2024 21,4 29,7 38,6 39 0 ----
RI MONTOPOLI IN SABINA Villa Caprola 11/07/2024 21,7 30,1 38,2 43 0 ----
RI POGGIO CATINO Pastine 11/07/2024 21,8 29,6 38,7 43 0 ----
RI POGGIO NATIVO Casali 11/07/2024 22,3 29,4 36,8 42 0 ----
RI RIETI Piana di Rieti 11/07/2024 15,5 26 35,6 57 0 1.016
RI SCANDRIGLIA Ponticelli 11/07/2024 21,6 29,1 36,6 38 0 ----
RM AGOSTA La Cisterna 11/07/2024 17,7 26,8 39,1 53 0 1.020
RM BRACCIANO Prato Pianciano 11/07/2024 21,7 31 40,6 40 0 1.016
RM CANALE MONTERANO Monte Virginio 11/07/2024 18 28,2 41,6 48 0 1.017
RM CERVETERI Campo di Mare 11/07/2024 20,2 27,4 33,4 60 0 ----
RM CIVITELLA S.PAOLO Le Cese 11/07/2024 22 29,8 39,1 44 0 1.013
RM FIUMICINO Maccarese 11/07/2024 19,9 27,6 34,2 65 0 1.013
RM FIUMICINO Testa di Lepre 11/07/2024 21,2 30,6 39,4 40 0 ----
RM FORMELLO Perazzeta 11/07/2024 21,8 30,6 38,6 47 0 ----
RM FRASCATI Prata Porci 11/07/2024 19 29,6 38,5 43 0 1.014
RM GENAZZANO Coop. La Sonnina 11/07/2024 20,4 28 37,1 50 0 1.015
RM GROTTAFERRATA Valle Marciana 11/07/2024 21,5 29,2 37,2 45 0 1.013
RM LADISPOLI Palo Laziale 11/07/2024 18,8 25,4 29,8 71 0 1.015
RM LICENZA Colle Franco 11/07/2024 18,7 27,2 38,7 49 0 1.014
RM MARCELLINA V. Campetella 11/07/2024 20,9 29,7 38,6 40 0 ----
RM MARINO Gotto d'Oro 11/07/2024 21,1 30 36,7 40 0 1.015
RM MONTECOMPATRI Colle Mattia 11/07/2024 19,9 29,7 39,7 41 0 1.015
RM MONTECOMPATRI Pantano Borghese 11/07/2024 16,4 28,7 41 51 0 1.015
RM MONTELIBRETTI Bruciati 11/07/2024 20,1 29,7 40,2 46 0 ----
RM MONTEPORZIO Camaldoli 11/07/2024 19,2 26,4 33,7 50 0 1.015
RM MONTEROTONDO Grotta Marozza 11/07/2024 21,1 30 38,6 42 0 1.014
RM PALOMBARA Fonte Grande 11/07/2024 17,7 28,9 39,6 46 0 ----
RM ROMA Capocotta 11/07/2024 22,3 29,3 36,1 58 0 ----
RM ROMA Ponte di Nona 11/07/2024 21,2 30,6 39 41 0 1.013
RM ROMA Via Lanciani 38 11/07/2024 24,6 31,6 36,9 35 0 1.013
RM S. GREGORIO C. Faustiniano 11/07/2024 22,5 29,8 39,5 41 0 1.014
RM VELLETRI Cantina Sperimentale 11/07/2024 21,1 28,2 35,7 50 0 1.015
RM VELLETRI Prato Lungo 11/07/2024 20,7 28,8 35,8 46 0 ----
RM ZAGAROLO Santa Apollara 11/07/2024 21,4 29,7 36,8 42 0 ----
VT ACQUAPENDENTE Falconiera 11/07/2024 17,4 28 39,1 49 0 1.019
VT BAGNOREGIO Castell Cellesi 11/07/2024 23,2 29,4 36,1 39 0 ----
VT BASSANO R. Piano Mola 11/07/2024 21,4 27,9 38,2 49 0 1.017
VT BLERA Puntoni 11/07/2024 19,8 28,7 37 46 0 1.014
VT BOLSENA Capone 11/07/2024 19,3 29 39,6 49 0 1.014
VT BOLSENA Rentica 11/07/2024 20,4 28,1 36,6 47 0 ----
VT CANINO Diga Timone 11/07/2024 19,6 29 40 51 0 1.016
VT CANINO Pianacce 11/07/2024 19,7 29,3 38,1 49 0 1.014
VT CANINO San Valeriano 11/07/2024 22,6 30 37,1 41 0 ----
VT CELLENO Acquaforte 11/07/2024 19,9 28,4 36,6 48 0 ----
VT CORCHIANO Pantalone 11/07/2024 19,4 29,8 40,7 47 0 1.015
VT FARNESE Gressa 11/07/2024 19 27,4 35,5 48 0 ----
VT FARNESE Pian di Sala 11/07/2024 14,8 25,7 36,6 61 0 ----
VT GROTTE DI CASTRO Borghetto 11/07/2024 17,9 28,2 38 50 0 1.014
VT GROTTE DI CASTRO Purgatorio 11/07/2024 17,3 27,6 37,3 52 0 1.012
VT LATERA Centro Florovivaistico 11/07/2024 14,7 25,8 37,3 59 0 1.016
VT MONTALTO Le Murelle 11/07/2024 19,4 26,4 32,1 62 0 1.015
VT MONTALTO Pescia Romana 11/07/2024 19,4 29,6 39,3 50 0 1.014
VT MONTEFIASCONE Commenda 11/07/2024 20,4 29,2 38,5 46 0 ----
VT RONCIGLIONE Ponterotto 11/07/2024 19,4 28,1 36,9 52 0 ----
VT SORIANO CIMINO Pantane 11/07/2024 16,7 27,8 38,8 52 0 1.018
VT SORIANO CIMINO Poggio di Chia 11/07/2024 18,7 28,8 37,8 48 0 ----
VT TARQUINIA Poggio Nebbia 11/07/2024 22,4 29,6 34,9 42 0 ----
VT TARQUINIA Portaccia 11/07/2024 19,5 27,2 33,3 65 0 ----
VT TUSCANIA Montebello 11/07/2024 23,2 29,6 35,6 31 0 ----
VT VETRALLA Marchionato 11/07/2024 20 28,6 36,3 38 0 ----
VT VITERBO Pisello 11/07/2024 20,8 28,8 36,8 33 0 ----
N.D. = Dati Non Disponibili
---- = Sensore non presente

Le misure esposte sono grezze, ovvero non sono state validate.